Seagoville's Hourly Summary for Sunday, May 13, 2018
Hour Temp
(f)
RH
(%)
Solar Rad.
(MJ/m2)
Rainfall
(in)
Wind
(mph)
5/13/2018 12:00 AM 74 77 0 0 5.36
5/13/2018 1:00 AM 75 78 0 0 6.88
5/13/2018 2:00 AM 73 82 0 0 6.02
5/13/2018 3:00 AM 72 85 0 0 5.72
5/13/2018 4:00 AM 71 89 0 0 5.67
5/13/2018 5:00 AM 71 91 0 0 5.7
5/13/2018 6:00 AM 69 92 0.02 0 3.4
5/13/2018 7:00 AM 70 90 0.26 0 4.68
5/13/2018 8:00 AM 74 78 1.02 0 6.76
5/13/2018 9:00 AM 75 75 0.82 0 7.72
5/13/2018 10:00 AM 77 66 1.97 0 8.83
5/13/2018 11:00 AM 79 63 2.05 0 8.89
5/13/2018 12:00 PM 81 59 2.49 0 9.38
5/13/2018 1:00 PM 83 54 2.84 0 9.74
5/13/2018 2:00 PM 84 52 2.44 0 9.27
5/13/2018 3:00 PM 85 51 2.15 0 9.14
5/13/2018 4:00 PM 86 50 1.94 0 8.41
5/13/2018 5:00 PM 86 49 1.51 0 8.71
5/13/2018 6:00 PM 85 49 0.92 0 7.05
5/13/2018 7:00 PM 83 55 0.27 0 3.87
5/13/2018 8:00 PM 79 64 0.01 0 2.59
5/13/2018 9:00 PM 76 72 0 0 2.94
5/13/2018 10:00 PM 76 73 0 0 2.54
5/13/2018 11:00 PM 75 75 0 0 2.59
Data Summary 77 69 20.71 0.00 6.33